sensor_id;sensor_type;location;lat;lon;timestamp;P1;durP1;ratioP1;P2;durP2;ratioP2
27333;SDS011;14817;57.104;-2.094;2023-03-01T00:01:12;6.65;;;0.80;;
27333;SDS011;14817;57.104;-2.094;2023-03-01T00:03:41;5.18;;;1.48;;
27333;SDS011;14817;57.104;-2.094;2023-03-01T00:06:09;4.47;;;1.08;;
27333;SDS011;14817;57.104;-2.094;2023-03-01T00:08:36;3.95;;;0.82;;
27333;SDS011;14817;57.104;-2.094;2023-03-01T00:11:04;4.70;;;1.10;;
27333;SDS011;14817;57.104;-2.094;2023-03-01T00:13:33;3.92;;;1.02;;
27333;SDS011;14817;57.104;-2.094;2023-03-01T00:16:02;3.45;;;0.90;;
27333;SDS011;14817;57.104;-2.094;2023-03-01T00:18:30;4.38;;;1.48;;
27333;SDS011;14817;57.104;-2.094;2023-03-01T00:20:57;3.97;;;1.30;;
27333;SDS011;14817;57.104;-2.094;2023-03-01T00:23:24;2.60;;;1.00;;
27333;SDS011;14817;57.104;-2.094;2023-03-01T00:25:51;3.67;;;1.40;;
27333;SDS011;14817;57.104;-2.094;2023-03-01T00:28:19;4.53;;;1.42;;
27333;SDS011;14817;57.104;-2.094;2023-03-01T00:30:46;2.40;;;0.60;;
27333;SDS011;14817;57.104;-2.094;2023-03-01T00:33:13;5.30;;;0.90;;
27333;SDS011;14817;57.104;-2.094;2023-03-01T00:35:40;2.80;;;0.80;;
27333;SDS011;14817;57.104;-2.094;2023-03-01T00:38:07;6.30;;;1.10;;
27333;SDS011;14817;57.104;-2.094;2023-03-01T00:40:35;3.53;;;0.82;;
27333;SDS011;14817;57.104;-2.094;2023-03-01T00:43:03;4.13;;;0.77;;
27333;SDS011;14817;57.104;-2.094;2023-03-01T00:45:30;1.65;;;0.73;;
27333;SDS011;14817;57.104;-2.094;2023-03-01T00:47:59;3.38;;;0.80;;
27333;SDS011;14817;57.104;-2.094;2023-03-01T00:50:26;4.28;;;1.08;;
27333;SDS011;14817;57.104;-2.094;2023-03-01T00:52:54;3.33;;;0.60;;
27333;SDS011;14817;57.104;-2.094;2023-03-01T00:55:22;3.47;;;1.00;;
27333;SDS011;14817;57.104;-2.094;2023-03-01T00:57:50;4.15;;;1.00;;
27333;SDS011;14817;57.104;-2.094;2023-03-01T01:00:17;3.92;;;0.80;;
27333;SDS011;14817;57.104;-2.094;2023-03-01T01:02:46;2.33;;;1.00;;
27333;SDS011;14817;57.104;-2.094;2023-03-01T01:05:13;3.55;;;1.40;;
27333;SDS011;14817;57.104;-2.094;2023-03-01T01:07:40;2.80;;;0.77;;
27333;SDS011;14817;57.104;-2.094;2023-03-01T01:10:07;7.57;;;1.40;;
27333;SDS011;14817;57.104;-2.094;2023-03-01T01:12:35;3.55;;;0.90;;
27333;SDS011;14817;57.104;-2.094;2023-03-01T01:15:01;4.28;;;1.15;;
27333;SDS011;14817;57.104;-2.094;2023-03-01T01:17:28;4.10;;;0.88;;
27333;SDS011;14817;57.104;-2.094;2023-03-01T01:19:55;2.95;;;0.73;;
27333;SDS011;14817;57.104;-2.094;2023-03-01T01:22:22;4.78;;;1.20;;
27333;SDS011;14817;57.104;-2.094;2023-03-01T01:24:49;3.63;;;0.80;;
27333;SDS011;14817;57.104;-2.094;2023-03-01T01:27:15;4.75;;;0.93;;
27333;SDS011;14817;57.104;-2.094;2023-03-01T01:29:42;2.72;;;0.70;;
27333;SDS011;14817;57.104;-2.094;2023-03-01T01:32:09;3.60;;;0.73;;
27333;SDS011;14817;57.104;-2.094;2023-03-01T01:34:36;3.83;;;0.90;;
27333;SDS011;14817;57.104;-2.094;2023-03-01T01:37:02;2.35;;;0.80;;
27333;SDS011;14817;57.104;-2.094;2023-03-01T01:39:29;2.95;;;0.60;;
27333;SDS011;14817;57.104;-2.094;2023-03-01T01:41:56;2.80;;;0.70;;
27333;SDS011;14817;57.104;-2.094;2023-03-01T01:44:25;2.92;;;0.40;;
27333;SDS011;14817;57.104;-2.094;2023-03-01T01:47:06;2.08;;;1.05;;
27333;SDS011;14817;57.104;-2.094;2023-03-01T01:52:19;4.95;;;0.52;;
27333;SDS011;14817;57.104;-2.094;2023-03-01T01:54:53;2.00;;;0.50;;
27333;SDS011;14817;57.104;-2.094;2023-03-01T01:57:32;1.13;;;0.43;;
27333;SDS011;14817;57.104;-2.094;2023-03-01T02:00:05;1.55;;;0.32;;
27333;SDS011;14817;57.104;-2.094;2023-03-01T02:02:44;3.38;;;0.85;;
27333;SDS011;14817;57.104;-2.094;2023-03-01T02:05:31;0.57;;;0.30;;
27333;SDS011;14817;57.104;-2.094;2023-03-01T02:08:05;2.00;;;0.47;;
27333;SDS011;14817;57.104;-2.094;2023-03-01T02:10:33;0.93;;;0.40;;
27333;SDS011;14817;57.104;-2.094;2023-03-01T02:13:01;5.25;;;0.40;;
27333;SDS011;14817;57.104;-2.094;2023-03-01T02:15:35;1.77;;;0.45;;
27333;SDS011;14817;57.104;-2.094;2023-03-01T02:18:04;2.35;;;0.40;;
27333;SDS011;14817;57.104;-2.094;2023-03-01T02:20:54;0.80;;;0.40;;
27333;SDS011;14817;57.104;-2.094;2023-03-01T02:23:29;2.53;;;0.30;;
27333;SDS011;14817;57.104;-2.094;2023-03-01T02:28:33;2.30;;;0.55;;
27333;SDS011;14817;57.104;-2.094;2023-03-01T02:31:05;2.00;;;0.38;;
27333;SDS011;14817;57.104;-2.094;2023-03-01T02:33:53;2.03;;;0.68;;
27333;SDS011;14817;57.104;-2.094;2023-03-01T02:36:29;2.97;;;0.45;;
27333;SDS011;14817;57.104;-2.094;2023-03-01T02:39:02;2.92;;;0.40;;
27333;SDS011;14817;57.104;-2.094;2023-03-01T02:41:36;3.53;;;0.40;;
27333;SDS011;14817;57.104;-2.094;2023-03-01T02:44:05;1.17;;;0.20;;
27333;SDS011;14817;57.104;-2.094;2023-03-01T02:46:32;1.15;;;0.20;;
27333;SDS011;14817;57.104;-2.094;2023-03-01T02:48:59;1.30;;;0.28;;
27333;SDS011;14817;57.104;-2.094;2023-03-01T02:51:31;1.83;;;0.43;;
27333;SDS011;14817;57.104;-2.094;2023-03-01T02:55:07;0.45;;;0.30;;
27333;SDS011;14817;57.104;-2.094;2023-03-01T02:57:39;1.85;;;0.30;;
27333;SDS011;14817;57.104;-2.094;2023-03-01T03:00:12;1.90;;;0.40;;
27333;SDS011;14817;57.104;-2.094;2023-03-01T03:02:47;3.03;;;0.60;;
27333;SDS011;14817;57.104;-2.094;2023-03-01T03:05:22;1.63;;;0.40;;
27333;SDS011;14817;57.104;-2.094;2023-03-01T03:07:53;1.98;;;0.40;;
27333;SDS011;14817;57.104;-2.094;2023-03-01T03:10:26;0.90;;;0.60;;
27333;SDS011;14817;57.104;-2.094;2023-03-01T03:13:04;1.52;;;0.32;;
27333;SDS011;14817;57.104;-2.094;2023-03-01T03:15:37;2.88;;;0.30;;
27333;SDS011;14817;57.104;-2.094;2023-03-01T03:18:09;0.35;;;0.30;;
27333;SDS011;14817;57.104;-2.094;2023-03-01T03:20:39;3.95;;;0.57;;
27333;SDS011;14817;57.104;-2.094;2023-03-01T03:23:08;2.70;;;0.63;;
27333;SDS011;14817;57.104;-2.094;2023-03-01T03:25:35;4.20;;;0.43;;
27333;SDS011;14817;57.104;-2.094;2023-03-01T03:28:06;5.28;;;0.60;;
27333;SDS011;14817;57.104;-2.094;2023-03-01T03:30:37;3.72;;;0.82;;
27333;SDS011;14817;57.104;-2.094;2023-03-01T03:33:05;2.17;;;0.50;;
27333;SDS011;14817;57.104;-2.094;2023-03-01T03:35:34;2.53;;;0.38;;
27333;SDS011;14817;57.104;-2.094;2023-03-01T03:38:07;0.90;;;0.30;;
27333;SDS011;14817;57.104;-2.094;2023-03-01T03:40:45;0.68;;;0.50;;
27333;SDS011;14817;57.104;-2.094;2023-03-01T03:43:15;1.75;;;0.50;;
27333;SDS011;14817;57.104;-2.094;2023-03-01T03:45:44;4.00;;;0.60;;
27333;SDS011;14817;57.104;-2.094;2023-03-01T03:48:13;3.20;;;0.57;;
27333;SDS011;14817;57.104;-2.094;2023-03-01T03:50:40;2.95;;;1.05;;
27333;SDS011;14817;57.104;-2.094;2023-03-01T03:53:09;1.60;;;0.65;;
27333;SDS011;14817;57.104;-2.094;2023-03-01T03:55:37;1.95;;;0.57;;
27333;SDS011;14817;57.104;-2.094;2023-03-01T03:58:09;4.10;;;0.50;;
27333;SDS011;14817;57.104;-2.094;2023-03-01T04:00:37;3.00;;;0.60;;
27333;SDS011;14817;57.104;-2.094;2023-03-01T04:05:35;1.67;;;0.38;;
27333;SDS011;14817;57.104;-2.094;2023-03-01T04:08:05;1.37;;;0.43;;
27333;SDS011;14817;57.104;-2.094;2023-03-01T04:10:43;3.92;;;0.47;;
27333;SDS011;14817;57.104;-2.094;2023-03-01T04:13:12;1.77;;;0.47;;
27333;SDS011;14817;57.104;-2.094;2023-03-01T04:15:40;1.45;;;0.40;;
27333;SDS011;14817;57.104;-2.094;2023-03-01T04:18:07;1.75;;;0.47;;
27333;SDS011;14817;57.104;-2.094;2023-03-01T04:20:35;3.70;;;0.70;;
27333;SDS011;14817;57.104;-2.094;2023-03-01T04:23:05;3.17;;;0.80;;
27333;SDS011;14817;57.104;-2.094;2023-03-01T04:25:53;0.70;;;0.35;;
27333;SDS011;14817;57.104;-2.094;2023-03-01T04:30:51;3.47;;;0.65;;
27333;SDS011;14817;57.104;-2.094;2023-03-01T04:33:19;3.88;;;0.73;;
27333;SDS011;14817;57.104;-2.094;2023-03-01T04:35:46;1.20;;;0.60;;
27333;SDS011;14817;57.104;-2.094;2023-03-01T04:38:18;2.72;;;0.50;;
27333;SDS011;14817;57.104;-2.094;2023-03-01T04:40:45;2.85;;;0.82;;
27333;SDS011;14817;57.104;-2.094;2023-03-01T04:43:12;2.45;;;0.40;;
27333;SDS011;14817;57.104;-2.094;2023-03-01T04:45:41;4.60;;;0.47;;
27333;SDS011;14817;57.104;-2.094;2023-03-01T04:48:08;1.27;;;0.50;;
27333;SDS011;14817;57.104;-2.094;2023-03-01T04:50:35;3.55;;;0.70;;
27333;SDS011;14817;57.104;-2.094;2023-03-01T04:53:02;1.95;;;0.45;;
27333;SDS011;14817;57.104;-2.094;2023-03-01T04:55:29;0.55;;;0.40;;
27333;SDS011;14817;57.104;-2.094;2023-03-01T04:57:57;5.00;;;0.50;;
27333;SDS011;14817;57.104;-2.094;2023-03-01T05:00:25;2.42;;;0.45;;
27333;SDS011;14817;57.104;-2.094;2023-03-01T05:02:53;3.55;;;0.70;;
27333;SDS011;14817;57.104;-2.094;2023-03-01T05:05:27;2.45;;;0.50;;
27333;SDS011;14817;57.104;-2.094;2023-03-01T05:07:57;1.27;;;0.43;;
27333;SDS011;14817;57.104;-2.094;2023-03-01T05:10:26;2.97;;;0.38;;
27333;SDS011;14817;57.104;-2.094;2023-03-01T05:12:56;3.15;;;0.50;;
27333;SDS011;14817;57.104;-2.094;2023-03-01T05:15:27;2.85;;;0.85;;
27333;SDS011;14817;57.104;-2.094;2023-03-01T05:17:56;3.67;;;0.70;;
27333;SDS011;14817;57.104;-2.094;2023-03-01T05:20:29;2.70;;;0.52;;
27333;SDS011;14817;57.104;-2.094;2023-03-01T05:22:58;1.42;;;0.60;;
27333;SDS011;14817;57.104;-2.094;2023-03-01T05:25:26;1.08;;;0.40;;
27333;SDS011;14817;57.104;-2.094;2023-03-01T05:27:53;2.80;;;0.47;;
27333;SDS011;14817;57.104;-2.094;2023-03-01T05:30:20;3.75;;;0.93;;
27333;SDS011;14817;57.104;-2.094;2023-03-01T05:32:49;7.93;;;1.10;;
27333;SDS011;14817;57.104;-2.094;2023-03-01T05:35:22;4.32;;;0.80;;
27333;SDS011;14817;57.104;-2.094;2023-03-01T05:37:49;3.20;;;0.43;;
27333;SDS011;14817;57.104;-2.094;2023-03-01T05:40:18;3.38;;;0.63;;
27333;SDS011;14817;57.104;-2.094;2023-03-01T05:42:47;4.00;;;1.02;;
27333;SDS011;14817;57.104;-2.094;2023-03-01T05:45:16;1.90;;;0.70;;
27333;SDS011;14817;57.104;-2.094;2023-03-01T05:47:45;2.30;;;0.60;;
27333;SDS011;14817;57.104;-2.094;2023-03-01T05:50:14;1.75;;;0.70;;
27333;SDS011;14817;57.104;-2.094;2023-03-01T05:52:49;3.10;;;0.77;;
27333;SDS011;14817;57.104;-2.094;2023-03-01T05:55:18;3.08;;;0.80;;
27333;SDS011;14817;57.104;-2.094;2023-03-01T05:57:47;5.32;;;0.90;;
27333;SDS011;14817;57.104;-2.094;2023-03-01T06:00:14;3.42;;;0.80;;
27333;SDS011;14817;57.104;-2.094;2023-03-01T06:02:43;5.25;;;0.82;;
27333;SDS011;14817;57.104;-2.094;2023-03-01T06:05:10;4.07;;;1.00;;
27333;SDS011;14817;57.104;-2.094;2023-03-01T06:07:39;3.80;;;1.27;;
27333;SDS011;14817;57.104;-2.094;2023-03-01T06:10:06;3.53;;;0.70;;
27333;SDS011;14817;57.104;-2.094;2023-03-01T06:12:35;4.68;;;0.80;;
27333;SDS011;14817;57.104;-2.094;2023-03-01T06:15:03;3.58;;;0.77;;
27333;SDS011;14817;57.104;-2.094;2023-03-01T06:17:33;2.78;;;0.80;;
27333;SDS011;14817;57.104;-2.094;2023-03-01T06:20:08;2.33;;;0.50;;
27333;SDS011;14817;57.104;-2.094;2023-03-01T06:22:35;4.35;;;0.70;;
27333;SDS011;14817;57.104;-2.094;2023-03-01T06:25:02;3.50;;;1.08;;
27333;SDS011;14817;57.104;-2.094;2023-03-01T06:27:30;1.75;;;0.77;;
27333;SDS011;14817;57.104;-2.094;2023-03-01T06:29:57;1.95;;;0.60;;
27333;SDS011;14817;57.104;-2.094;2023-03-01T06:32:24;3.28;;;0.90;;
27333;SDS011;14817;57.104;-2.094;2023-03-01T06:34:50;3.65;;;0.80;;
27333;SDS011;14817;57.104;-2.094;2023-03-01T06:37:17;2.70;;;0.77;;
27333;SDS011;14817;57.104;-2.094;2023-03-01T06:39:44;5.00;;;0.85;;
27333;SDS011;14817;57.104;-2.094;2023-03-01T06:42:11;1.48;;;0.60;;
27333;SDS011;14817;57.104;-2.094;2023-03-01T06:44:38;4.45;;;0.65;;
27333;SDS011;14817;57.104;-2.094;2023-03-01T06:47:04;3.72;;;0.60;;
27333;SDS011;14817;57.104;-2.094;2023-03-01T06:49:31;4.85;;;1.90;;
27333;SDS011;14817;57.104;-2.094;2023-03-01T06:51:58;3.55;;;0.50;;
27333;SDS011;14817;57.104;-2.094;2023-03-01T06:54:25;2.35;;;0.50;;
27333;SDS011;14817;57.104;-2.094;2023-03-01T06:56:52;8.13;;;0.60;;
27333;SDS011;14817;57.104;-2.094;2023-03-01T06:59:18;6.50;;;1.08;;
27333;SDS011;14817;57.104;-2.094;2023-03-01T07:01:45;2.40;;;0.75;;
27333;SDS011;14817;57.104;-2.094;2023-03-01T07:04:12;3.92;;;0.73;;
27333;SDS011;14817;57.104;-2.094;2023-03-01T07:06:40;2.20;;;0.40;;
27333;SDS011;14817;57.104;-2.094;2023-03-01T07:09:07;0.32;;;0.30;;
27333;SDS011;14817;57.104;-2.094;2023-03-01T07:11:34;0.95;;;0.55;;
27333;SDS011;14817;57.104;-2.094;2023-03-01T07:14:00;1.45;;;0.50;;
27333;SDS011;14817;57.104;-2.094;2023-03-01T07:16:27;1.70;;;0.32;;
27333;SDS011;14817;57.104;-2.094;2023-03-01T07:18:54;2.72;;;0.32;;
27333;SDS011;14817;57.104;-2.094;2023-03-01T07:21:21;2.70;;;0.38;;
27333;SDS011;14817;57.104;-2.094;2023-03-01T07:23:48;2.90;;;0.50;;
27333;SDS011;14817;57.104;-2.094;2023-03-01T07:26:15;4.50;;;0.63;;
27333;SDS011;14817;57.104;-2.094;2023-03-01T07:28:42;0.93;;;0.35;;
27333;SDS011;14817;57.104;-2.094;2023-03-01T07:31:08;2.00;;;0.50;;
27333;SDS011;14817;57.104;-2.094;2023-03-01T07:33:35;0.95;;;0.40;;
27333;SDS011;14817;57.104;-2.094;2023-03-01T07:36:03;2.45;;;0.40;;
27333;SDS011;14817;57.104;-2.094;2023-03-01T07:38:30;0.63;;;0.28;;
27333;SDS011;14817;57.104;-2.094;2023-03-01T07:40:58;3.53;;;0.63;;
27333;SDS011;14817;57.104;-2.094;2023-03-01T07:43:27;5.35;;;0.98;;
27333;SDS011;14817;57.104;-2.094;2023-03-01T07:45:57;2.10;;;0.90;;
27333;SDS011;14817;57.104;-2.094;2023-03-01T07:50:53;0.80;;;0.40;;
27333;SDS011;14817;57.104;-2.094;2023-03-01T07:53:20;2.70;;;0.60;;
27333;SDS011;14817;57.104;-2.094;2023-03-01T07:55:47;0.63;;;0.32;;
27333;SDS011;14817;57.104;-2.094;2023-03-01T07:58:13;1.30;;;0.63;;
27333;SDS011;14817;57.104;-2.094;2023-03-01T08:00:40;3.22;;;0.43;;
27333;SDS011;14817;57.104;-2.094;2023-03-01T08:03:07;0.80;;;0.40;;
27333;SDS011;14817;57.104;-2.094;2023-03-01T08:05:34;2.45;;;0.50;;
27333;SDS011;14817;57.104;-2.094;2023-03-01T08:08:00;3.47;;;0.47;;
27333;SDS011;14817;57.104;-2.094;2023-03-01T08:10:27;3.88;;;0.60;;
27333;SDS011;14817;57.104;-2.094;2023-03-01T08:12:54;1.23;;;0.50;;
27333;SDS011;14817;57.104;-2.094;2023-03-01T08:15:20;2.10;;;0.60;;
27333;SDS011;14817;57.104;-2.094;2023-03-01T08:17:48;1.58;;;0.40;;
27333;SDS011;14817;57.104;-2.094;2023-03-01T08:20:16;3.33;;;0.77;;
27333;SDS011;14817;57.104;-2.094;2023-03-01T08:22:45;1.90;;;0.50;;
27333;SDS011;14817;57.104;-2.094;2023-03-01T08:25:11;2.13;;;0.98;;
27333;SDS011;14817;57.104;-2.094;2023-03-01T08:27:38;2.10;;;0.77;;
27333;SDS011;14817;57.104;-2.094;2023-03-01T08:30:05;1.48;;;0.55;;
27333;SDS011;14817;57.104;-2.094;2023-03-01T08:32:39;4.80;;;0.50;;
27333;SDS011;14817;57.104;-2.094;2023-03-01T08:35:06;3.10;;;0.55;;
27333;SDS011;14817;57.104;-2.094;2023-03-01T08:37:33;1.75;;;0.50;;
27333;SDS011;14817;57.104;-2.094;2023-03-01T08:40:00;2.60;;;0.50;;
27333;SDS011;14817;57.104;-2.094;2023-03-01T08:42:27;2.55;;;0.70;;
27333;SDS011;14817;57.104;-2.094;2023-03-01T08:44:54;1.02;;;0.47;;
27333;SDS011;14817;57.104;-2.094;2023-03-01T08:47:21;0.80;;;0.57;;
27333;SDS011;14817;57.104;-2.094;2023-03-01T08:49:48;3.80;;;0.80;;
27333;SDS011;14817;57.104;-2.094;2023-03-01T08:52:16;1.40;;;0.75;;
27333;SDS011;14817;57.104;-2.094;2023-03-01T08:54:43;3.00;;;0.80;;
27333;SDS011;14817;57.104;-2.094;2023-03-01T08:57:10;0.70;;;0.50;;
27333;SDS011;14817;57.104;-2.094;2023-03-01T08:59:36;3.05;;;0.60;;
27333;SDS011;14817;57.104;-2.094;2023-03-01T09:02:04;1.80;;;0.77;;
27333;SDS011;14817;57.104;-2.094;2023-03-01T09:04:32;1.02;;;0.68;;
27333;SDS011;14817;57.104;-2.094;2023-03-01T09:06:59;7.43;;;4.18;;
27333;SDS011;14817;57.104;-2.094;2023-03-01T09:09:26;1.35;;;0.70;;
27333;SDS011;14817;57.104;-2.094;2023-03-01T09:11:53;1.30;;;0.68;;
27333;SDS011;14817;57.104;-2.094;2023-03-01T09:14:19;1.42;;;0.38;;
27333;SDS011;14817;57.104;-2.094;2023-03-01T09:16:46;1.27;;;0.50;;
27333;SDS011;14817;57.104;-2.094;2023-03-01T09:19:13;3.42;;;0.57;;
27333;SDS011;14817;57.104;-2.094;2023-03-01T09:21:40;1.95;;;0.60;;
27333;SDS011;14817;57.104;-2.094;2023-03-01T09:24:12;2.80;;;1.02;;
27333;SDS011;14817;57.104;-2.094;2023-03-01T09:26:40;3.28;;;0.50;;
27333;SDS011;14817;57.104;-2.094;2023-03-01T09:29:07;1.25;;;0.40;;
27333;SDS011;14817;57.104;-2.094;2023-03-01T09:31:36;3.33;;;0.40;;
27333;SDS011;14817;57.104;-2.094;2023-03-01T09:34:02;0.63;;;0.30;;
27333;SDS011;14817;57.104;-2.094;2023-03-01T09:36:29;2.05;;;0.65;;
27333;SDS011;14817;57.104;-2.094;2023-03-01T09:38:57;1.88;;;0.82;;
27333;SDS011;14817;57.104;-2.094;2023-03-01T09:41:36;4.10;;;0.57;;
27333;SDS011;14817;57.104;-2.094;2023-03-01T09:47:04;4.15;;;0.82;;
27333;SDS011;14817;57.104;-2.094;2023-03-01T09:49:33;6.45;;;1.20;;
27333;SDS011;14817;57.104;-2.094;2023-03-01T09:54:38;6.40;;;1.38;;
27333;SDS011;14817;57.104;-2.094;2023-03-01T09:57:06;11.70;;;1.95;;
27333;SDS011;14817;57.104;-2.094;2023-03-01T09:59:39;5.45;;;1.23;;
27333;SDS011;14817;57.104;-2.094;2023-03-01T10:05:05;8.85;;;1.90;;
27333;SDS011;14817;57.104;-2.094;2023-03-01T10:11:12;9.23;;;1.55;;
27333;SDS011;14817;57.104;-2.094;2023-03-01T10:15:55;3.75;;;1.08;;
27333;SDS011;14817;57.104;-2.094;2023-03-01T10:18:26;3.15;;;0.85;;
27333;SDS011;14817;57.104;-2.094;2023-03-01T10:20:57;3.35;;;0.60;;
27333;SDS011;14817;57.104;-2.094;2023-03-01T10:23:26;3.53;;;0.60;;
27333;SDS011;14817;57.104;-2.094;2023-03-01T10:31:18;4.43;;;0.73;;
27333;SDS011;14817;57.104;-2.094;2023-03-01T10:33:48;3.63;;;0.80;;
27333;SDS011;14817;57.104;-2.094;2023-03-01T10:36:21;4.18;;;0.55;;
27333;SDS011;14817;57.104;-2.094;2023-03-01T10:38:50;6.00;;;1.13;;
27333;SDS011;14817;57.104;-2.094;2023-03-01T10:41:23;8.10;;;1.30;;
27333;SDS011;14817;57.104;-2.094;2023-03-01T10:43:53;5.68;;;0.70;;
27333;SDS011;14817;57.104;-2.094;2023-03-01T10:46:29;1.85;;;0.45;;
27333;SDS011;14817;57.104;-2.094;2023-03-01T10:51:41;7.13;;;1.23;;
27333;SDS011;14817;57.104;-2.094;2023-03-01T10:54:17;5.43;;;0.93;;
27333;SDS011;14817;57.104;-2.094;2023-03-01T10:56:52;6.53;;;0.95;;
27333;SDS011;14817;57.104;-2.094;2023-03-01T10:59:32;11.55;;;1.30;;
27333;SDS011;14817;57.104;-2.094;2023-03-01T11:07:47;8.75;;;2.17;;
27333;SDS011;14817;57.104;-2.094;2023-03-01T11:10:22;9.15;;;1.13;;
27333;SDS011;14817;57.104;-2.094;2023-03-01T11:12:56;8.88;;;1.58;;
27333;SDS011;14817;57.104;-2.094;2023-03-01T11:15:43;9.27;;;1.40;;
27333;SDS011;14817;57.104;-2.094;2023-03-01T11:18:24;5.10;;;1.10;;
27333;SDS011;14817;57.104;-2.094;2023-03-01T11:21:11;9.15;;;2.15;;
27333;SDS011;14817;57.104;-2.094;2023-03-01T11:23:39;9.30;;;1.15;;
27333;SDS011;14817;57.104;-2.094;2023-03-01T11:26:07;11.95;;;1.80;;
27333;SDS011;14817;57.104;-2.094;2023-03-01T11:28:38;4.97;;;1.45;;
27333;SDS011;14817;57.104;-2.094;2023-03-01T11:31:08;7.25;;;1.63;;
27333;SDS011;14817;57.104;-2.094;2023-03-01T11:33:47;5.95;;;1.40;;
27333;SDS011;14817;57.104;-2.094;2023-03-01T11:41:56;6.75;;;1.10;;
27333;SDS011;14817;57.104;-2.094;2023-03-01T11:44:46;6.65;;;1.35;;
27333;SDS011;14817;57.104;-2.094;2023-03-01T12:01:35;6.20;;;1.15;;
27333;SDS011;14817;57.104;-2.094;2023-03-01T12:18:40;5.75;;;0.77;;
27333;SDS011;14817;57.104;-2.094;2023-03-01T12:21:40;7.45;;;1.00;;
27333;SDS011;14817;57.104;-2.094;2023-03-01T12:24:30;5.28;;;1.17;;
27333;SDS011;14817;57.104;-2.094;2023-03-01T12:47:19;16.00;;;3.22;;
27333;SDS011;14817;57.104;-2.094;2023-03-01T12:49:57;9.45;;;2.83;;
27333;SDS011;14817;57.104;-2.094;2023-03-01T12:52:43;12.20;;;3.53;;
27333;SDS011;14817;57.104;-2.094;2023-03-01T12:58:05;10.95;;;2.60;;
27333;SDS011;14817;57.104;-2.094;2023-03-01T13:00:38;9.70;;;2.08;;
27333;SDS011;14817;57.104;-2.094;2023-03-01T13:06:40;5.40;;;1.65;;
27333;SDS011;14817;57.104;-2.094;2023-03-01T13:17:53;11.90;;;1.67;;
27333;SDS011;14817;57.104;-2.094;2023-03-01T13:20:50;7.95;;;1.58;;
27333;SDS011;14817;57.104;-2.094;2023-03-01T13:31:55;13.55;;;1.88;;
27333;SDS011;14817;57.104;-2.094;2023-03-01T13:34:01;8.73;;;1.83;;
27333;SDS011;14817;57.104;-2.094;2023-03-01T13:41:59;10.65;;;1.98;;
27333;SDS011;14817;57.104;-2.094;2023-03-01T13:44:29;19.35;;;2.38;;
27333;SDS011;14817;57.104;-2.094;2023-03-01T13:55:00;18.40;;;2.80;;
27333;SDS011;14817;57.104;-2.094;2023-03-01T13:57:32;5.75;;;1.92;;
27333;SDS011;14817;57.104;-2.094;2023-03-01T14:00:01;12.20;;;2.50;;
27333;SDS011;14817;57.104;-2.094;2023-03-01T14:02:32;8.35;;;1.67;;
27333;SDS011;14817;57.104;-2.094;2023-03-01T14:05:00;7.30;;;1.85;;
27333;SDS011;14817;57.104;-2.094;2023-03-01T14:07:27;12.40;;;2.65;;
27333;SDS011;14817;57.104;-2.094;2023-03-01T14:09:58;13.57;;;2.97;;
27333;SDS011;14817;57.104;-2.094;2023-03-01T14:15:42;6.28;;;1.40;;
27333;SDS011;14817;57.104;-2.094;2023-03-01T14:18:26;16.77;;;2.90;;
27333;SDS011;14817;57.104;-2.094;2023-03-01T14:21:01;10.38;;;1.70;;
27333;SDS011;14817;57.104;-2.094;2023-03-01T14:23:34;8.85;;;1.70;;
27333;SDS011;14817;57.104;-2.094;2023-03-01T14:26:02;7.30;;;1.70;;
27333;SDS011;14817;57.104;-2.094;2023-03-01T14:28:30;12.20;;;1.90;;
27333;SDS011;14817;57.104;-2.094;2023-03-01T14:31:03;7.13;;;1.40;;
27333;SDS011;14817;57.104;-2.094;2023-03-01T14:34:18;12.05;;;1.75;;
27333;SDS011;14817;57.104;-2.094;2023-03-01T14:36:49;6.72;;;1.27;;
27333;SDS011;14817;57.104;-2.094;2023-03-01T14:39:17;5.70;;;1.90;;
27333;SDS011;14817;57.104;-2.094;2023-03-01T14:41:50;10.10;;;1.95;;
27333;SDS011;14817;57.104;-2.094;2023-03-01T14:44:21;16.08;;;2.38;;
27333;SDS011;14817;57.104;-2.094;2023-03-01T14:46:51;11.63;;;1.25;;
27333;SDS011;14817;57.104;-2.094;2023-03-01T14:49:22;12.70;;;1.70;;
27333;SDS011;14817;57.104;-2.094;2023-03-01T14:52:06;12.15;;;2.25;;
27333;SDS011;14817;57.104;-2.094;2023-03-01T14:54:50;12.32;;;1.80;;
27333;SDS011;14817;57.104;-2.094;2023-03-01T14:57:20;8.30;;;1.40;;
27333;SDS011;14817;57.104;-2.094;2023-03-01T14:59:49;8.63;;;1.55;;
27333;SDS011;14817;57.104;-2.094;2023-03-01T15:02:20;9.15;;;1.30;;
27333;SDS011;14817;57.104;-2.094;2023-03-01T15:04:51;7.30;;;1.48;;
27333;SDS011;14817;57.104;-2.094;2023-03-01T15:07:24;8.40;;;1.63;;
27333;SDS011;14817;57.104;-2.094;2023-03-01T15:09:54;6.22;;;1.20;;
27333;SDS011;14817;57.104;-2.094;2023-03-01T15:14:55;6.47;;;1.10;;
27333;SDS011;14817;57.104;-2.094;2023-03-01T15:20:03;7.22;;;1.73;;
27333;SDS011;14817;57.104;-2.094;2023-03-01T15:22:33;10.80;;;1.63;;
27333;SDS011;14817;57.104;-2.094;2023-03-01T15:25:01;14.45;;;2.10;;
27333;SDS011;14817;57.104;-2.094;2023-03-01T15:27:28;10.68;;;1.75;;
27333;SDS011;14817;57.104;-2.094;2023-03-01T15:29:56;10.35;;;2.50;;
27333;SDS011;14817;57.104;-2.094;2023-03-01T15:38:55;10.80;;;2.42;;
27333;SDS011;14817;57.104;-2.094;2023-03-01T15:41:01;6.60;;;1.60;;
27333;SDS011;14817;57.104;-2.094;2023-03-01T15:43:40;9.07;;;1.55;;
27333;SDS011;14817;57.104;-2.094;2023-03-01T15:46:23;5.43;;;1.50;;
27333;SDS011;14817;57.104;-2.094;2023-03-01T15:48:54;9.13;;;1.80;;
27333;SDS011;14817;57.104;-2.094;2023-03-01T15:51:43;7.28;;;1.40;;
27333;SDS011;14817;57.104;-2.094;2023-03-01T15:54:14;6.40;;;1.38;;
27333;SDS011;14817;57.104;-2.094;2023-03-01T15:56:45;8.07;;;1.58;;
27333;SDS011;14817;57.104;-2.094;2023-03-01T15:59:12;4.40;;;1.10;;
27333;SDS011;14817;57.104;-2.094;2023-03-01T16:01:40;5.03;;;1.50;;
27333;SDS011;14817;57.104;-2.094;2023-03-01T16:04:11;6.63;;;1.48;;
27333;SDS011;14817;57.104;-2.094;2023-03-01T16:06:47;8.18;;;1.73;;
27333;SDS011;14817;57.104;-2.094;2023-03-01T16:09:25;6.80;;;1.48;;
27333;SDS011;14817;57.104;-2.094;2023-03-01T16:11:53;7.25;;;1.50;;
27333;SDS011;14817;57.104;-2.094;2023-03-01T16:14:20;6.32;;;1.88;;
27333;SDS011;14817;57.104;-2.094;2023-03-01T16:16:47;5.38;;;1.23;;
27333;SDS011;14817;57.104;-2.094;2023-03-01T16:19:15;7.15;;;1.50;;
27333;SDS011;14817;57.104;-2.094;2023-03-01T16:21:42;6.85;;;1.20;;
27333;SDS011;14817;57.104;-2.094;2023-03-01T16:24:10;3.78;;;0.80;;
27333;SDS011;14817;57.104;-2.094;2023-03-01T16:26:36;2.55;;;0.80;;
27333;SDS011;14817;57.104;-2.094;2023-03-01T16:29:04;5.43;;;0.68;;
27333;SDS011;14817;57.104;-2.094;2023-03-01T16:31:31;3.63;;;0.73;;
27333;SDS011;14817;57.104;-2.094;2023-03-01T16:33:59;3.80;;;0.70;;
27333;SDS011;14817;57.104;-2.094;2023-03-01T16:36:26;3.67;;;0.85;;
27333;SDS011;14817;57.104;-2.094;2023-03-01T16:38:57;6.60;;;1.33;;
27333;SDS011;14817;57.104;-2.094;2023-03-01T16:41:26;3.15;;;0.50;;
27333;SDS011;14817;57.104;-2.094;2023-03-01T16:43:53;2.38;;;1.50;;
27333;SDS011;14817;57.104;-2.094;2023-03-01T16:46:21;1.88;;;0.50;;
27333;SDS011;14817;57.104;-2.094;2023-03-01T16:48:50;3.22;;;0.85;;
27333;SDS011;14817;57.104;-2.094;2023-03-01T16:51:17;5.22;;;2.10;;
27333;SDS011;14817;57.104;-2.094;2023-03-01T16:53:45;10.90;;;1.90;;
27333;SDS011;14817;57.104;-2.094;2023-03-01T16:56:13;11.15;;;2.33;;
27333;SDS011;14817;57.104;-2.094;2023-03-01T16:58:40;8.65;;;2.10;;
27333;SDS011;14817;57.104;-2.094;2023-03-01T17:01:11;6.50;;;2.38;;
27333;SDS011;14817;57.104;-2.094;2023-03-01T17:03:44;8.75;;;2.35;;
27333;SDS011;14817;57.104;-2.094;2023-03-01T17:06:14;10.50;;;2.70;;
27333;SDS011;14817;57.104;-2.094;2023-03-01T17:08:43;11.77;;;3.80;;
27333;SDS011;14817;57.104;-2.094;2023-03-01T17:11:11;10.52;;;2.42;;
27333;SDS011;14817;57.104;-2.094;2023-03-01T17:13:40;9.38;;;3.90;;
27333;SDS011;14817;57.104;-2.094;2023-03-01T17:16:08;13.32;;;3.40;;
27333;SDS011;14817;57.104;-2.094;2023-03-01T17:18:36;9.02;;;2.20;;